sensor_id;sensor_type;location;lat;lon;timestamp;P1;durP1;ratioP1;P2;durP2;ratioP2
9117;SDS011;4594;50.994;7.126;2023-07-20T00:01:28;2.60;;;2.13;;
9117;SDS011;4594;50.994;7.126;2023-07-20T00:03:54;2.33;;;2.13;;
9117;SDS011;4594;50.994;7.126;2023-07-20T00:06:23;2.63;;;2.13;;
9117;SDS011;4594;50.994;7.126;2023-07-20T00:08:52;2.60;;;2.27;;
9117;SDS011;4594;50.994;7.126;2023-07-20T00:11:19;2.63;;;1.93;;
9117;SDS011;4594;50.994;7.126;2023-07-20T00:13:46;2.27;;;2.17;;
9117;SDS011;4594;50.994;7.126;2023-07-20T00:16:12;3.87;;;2.27;;
9117;SDS011;4594;50.994;7.126;2023-07-20T00:18:38;2.20;;;2.00;;
9117;SDS011;4594;50.994;7.126;2023-07-20T00:21:04;2.10;;;1.93;;
9117;SDS011;4594;50.994;7.126;2023-07-20T00:23:29;2.07;;;1.90;;
9117;SDS011;4594;50.994;7.126;2023-07-20T00:25:55;2.13;;;2.03;;
9117;SDS011;4594;50.994;7.126;2023-07-20T00:28:21;2.13;;;2.03;;
9117;SDS011;4594;50.994;7.126;2023-07-20T00:30:46;2.30;;;2.10;;
9117;SDS011;4594;50.994;7.126;2023-07-20T00:33:12;4.07;;;1.87;;
9117;SDS011;4594;50.994;7.126;2023-07-20T00:35:41;3.30;;;2.03;;
9117;SDS011;4594;50.994;7.126;2023-07-20T00:38:07;2.27;;;2.07;;
9117;SDS011;4594;50.994;7.126;2023-07-20T00:40:39;2.37;;;2.17;;
9117;SDS011;4594;50.994;7.126;2023-07-20T00:43:05;2.10;;;2.00;;
9117;SDS011;4594;50.994;7.126;2023-07-20T00:45:32;2.07;;;1.97;;
9117;SDS011;4594;50.994;7.126;2023-07-20T00:47:59;4.23;;;2.13;;
9117;SDS011;4594;50.994;7.126;2023-07-20T00:50:27;3.07;;;2.27;;
9117;SDS011;4594;50.994;7.126;2023-07-20T00:52:57;3.87;;;2.30;;
9117;SDS011;4594;50.994;7.126;2023-07-20T00:55:23;2.43;;;2.23;;
9117;SDS011;4594;50.994;7.126;2023-07-20T00:57:50;3.17;;;2.37;;
9117;SDS011;4594;50.994;7.126;2023-07-20T01:00:16;2.70;;;2.17;;
9117;SDS011;4594;50.994;7.126;2023-07-20T01:02:43;3.43;;;2.20;;
9117;SDS011;4594;50.994;7.126;2023-07-20T01:05:08;1.90;;;1.80;;
9117;SDS011;4594;50.994;7.126;2023-07-20T01:07:42;2.30;;;2.20;;
9117;SDS011;4594;50.994;7.126;2023-07-20T01:13:22;3.03;;;2.33;;
9117;SDS011;4594;50.994;7.126;2023-07-20T01:15:50;3.23;;;2.17;;
9117;SDS011;4594;50.994;7.126;2023-07-20T01:18:23;2.60;;;2.40;;
9117;SDS011;4594;50.994;7.126;2023-07-20T01:20:49;3.22;;;2.10;;
9117;SDS011;4594;50.994;7.126;2023-07-20T01:26:21;2.37;;;2.07;;
9117;SDS011;4594;50.994;7.126;2023-07-20T01:29:40;2.20;;;2.00;;
9117;SDS011;4594;50.994;7.126;2023-07-20T01:32:19;2.60;;;2.17;;
9117;SDS011;4594;50.994;7.126;2023-07-20T01:34:50;2.17;;;2.00;;
9117;SDS011;4594;50.994;7.126;2023-07-20T01:37:20;2.87;;;2.13;;
9117;SDS011;4594;50.994;7.126;2023-07-20T01:39:51;2.30;;;2.20;;
9117;SDS011;4594;50.994;7.126;2023-07-20T01:42:21;2.13;;;1.93;;
9117;SDS011;4594;50.994;7.126;2023-07-20T01:44:50;2.47;;;2.27;;
9117;SDS011;4594;50.994;7.126;2023-07-20T01:47:17;2.27;;;2.07;;
9117;SDS011;4594;50.994;7.126;2023-07-20T01:49:43;3.13;;;2.10;;
9117;SDS011;4594;50.994;7.126;2023-07-20T01:52:09;2.40;;;2.30;;
9117;SDS011;4594;50.994;7.126;2023-07-20T01:54:34;2.23;;;2.03;;
9117;SDS011;4594;50.994;7.126;2023-07-20T01:57:00;4.13;;;2.23;;
9117;SDS011;4594;50.994;7.126;2023-07-20T01:59:26;6.50;;;2.50;;
9117;SDS011;4594;50.994;7.126;2023-07-20T02:01:52;2.57;;;2.37;;
9117;SDS011;4594;50.994;7.126;2023-07-20T02:04:17;2.77;;;2.20;;
9117;SDS011;4594;50.994;7.126;2023-07-20T02:06:43;2.40;;;2.17;;
9117;SDS011;4594;50.994;7.126;2023-07-20T02:09:09;4.70;;;2.33;;
9117;SDS011;4594;50.994;7.126;2023-07-20T02:11:34;2.67;;;2.47;;
9117;SDS011;4594;50.994;7.126;2023-07-20T02:14:00;3.03;;;2.30;;
9117;SDS011;4594;50.994;7.126;2023-07-20T02:16:26;3.57;;;2.27;;
9117;SDS011;4594;50.994;7.126;2023-07-20T02:18:52;3.83;;;2.67;;
9117;SDS011;4594;50.994;7.126;2023-07-20T02:21:18;8.40;;;2.30;;
9117;SDS011;4594;50.994;7.126;2023-07-20T02:23:44;2.50;;;2.40;;
9117;SDS011;4594;50.994;7.126;2023-07-20T02:26:09;2.60;;;2.40;;
9117;SDS011;4594;50.994;7.126;2023-07-20T02:28:35;2.27;;;2.10;;
9117;SDS011;4594;50.994;7.126;2023-07-20T02:31:01;2.30;;;2.20;;
9117;SDS011;4594;50.994;7.126;2023-07-20T02:33:26;5.67;;;2.53;;
9117;SDS011;4594;50.994;7.126;2023-07-20T02:35:52;2.50;;;2.30;;
9117;SDS011;4594;50.994;7.126;2023-07-20T02:38:18;2.37;;;2.13;;
9117;SDS011;4594;50.994;7.126;2023-07-20T02:40:43;2.30;;;2.13;;
9117;SDS011;4594;50.994;7.126;2023-07-20T02:43:09;2.40;;;2.30;;
9117;SDS011;4594;50.994;7.126;2023-07-20T02:45:35;3.40;;;2.47;;
9117;SDS011;4594;50.994;7.126;2023-07-20T02:48:05;2.57;;;2.20;;
9117;SDS011;4594;50.994;7.126;2023-07-20T02:50:33;2.43;;;2.20;;
9117;SDS011;4594;50.994;7.126;2023-07-20T02:52:59;1.87;;;1.77;;
9117;SDS011;4594;50.994;7.126;2023-07-20T02:55:25;2.47;;;2.30;;
9117;SDS011;4594;50.994;7.126;2023-07-20T02:57:51;4.40;;;2.53;;
9117;SDS011;4594;50.994;7.126;2023-07-20T03:00:17;3.17;;;2.40;;
9117;SDS011;4594;50.994;7.126;2023-07-20T03:02:44;2.17;;;2.13;;
9117;SDS011;4594;50.994;7.126;2023-07-20T03:05:14;2.73;;;2.00;;
9117;SDS011;4594;50.994;7.126;2023-07-20T03:07:41;2.50;;;2.30;;
9117;SDS011;4594;50.994;7.126;2023-07-20T03:10:08;3.63;;;2.13;;
9117;SDS011;4594;50.994;7.126;2023-07-20T03:12:35;2.37;;;2.13;;
9117;SDS011;4594;50.994;7.126;2023-07-20T03:15:01;1.80;;;1.63;;
9117;SDS011;4594;50.994;7.126;2023-07-20T03:17:28;2.23;;;2.13;;
9117;SDS011;4594;50.994;7.126;2023-07-20T03:19:53;2.60;;;2.50;;
9117;SDS011;4594;50.994;7.126;2023-07-20T03:22:19;2.63;;;2.17;;
9117;SDS011;4594;50.994;7.126;2023-07-20T03:24:46;2.03;;;1.93;;
9117;SDS011;4594;50.994;7.126;2023-07-20T03:27:12;2.27;;;2.17;;
9117;SDS011;4594;50.994;7.126;2023-07-20T03:29:38;3.10;;;2.27;;
9117;SDS011;4594;50.994;7.126;2023-07-20T03:32:04;3.17;;;2.20;;
9117;SDS011;4594;50.994;7.126;2023-07-20T03:34:30;2.80;;;2.53;;
9117;SDS011;4594;50.994;7.126;2023-07-20T03:36:56;3.50;;;2.50;;
9117;SDS011;4594;50.994;7.126;2023-07-20T03:39:22;2.50;;;2.30;;
9117;SDS011;4594;50.994;7.126;2023-07-20T03:41:48;2.70;;;2.17;;
9117;SDS011;4594;50.994;7.126;2023-07-20T03:44:13;5.37;;;2.87;;
9117;SDS011;4594;50.994;7.126;2023-07-20T03:46:39;7.00;;;2.97;;
9117;SDS011;4594;50.994;7.126;2023-07-20T03:49:05;4.13;;;2.57;;
9117;SDS011;4594;50.994;7.126;2023-07-20T03:51:31;2.60;;;2.40;;
9117;SDS011;4594;50.994;7.126;2023-07-20T03:53:57;2.37;;;2.27;;
9117;SDS011;4594;50.994;7.126;2023-07-20T03:56:23;3.57;;;2.47;;
9117;SDS011;4594;50.994;7.126;2023-07-20T03:58:49;2.70;;;2.50;;
9117;SDS011;4594;50.994;7.126;2023-07-20T04:01:15;4.20;;;2.30;;
9117;SDS011;4594;50.994;7.126;2023-07-20T04:03:41;2.60;;;2.20;;
9117;SDS011;4594;50.994;7.126;2023-07-20T04:06:08;2.40;;;2.30;;
9117;SDS011;4594;50.994;7.126;2023-07-20T04:08:34;4.67;;;2.47;;
9117;SDS011;4594;50.994;7.126;2023-07-20T04:11:01;2.37;;;2.17;;
9117;SDS011;4594;50.994;7.126;2023-07-20T04:13:27;2.67;;;2.47;;
9117;SDS011;4594;50.994;7.126;2023-07-20T04:15:53;2.63;;;2.37;;
9117;SDS011;4594;50.994;7.126;2023-07-20T04:18:20;3.30;;;2.47;;
9117;SDS011;4594;50.994;7.126;2023-07-20T04:20:46;4.87;;;2.60;;
9117;SDS011;4594;50.994;7.126;2023-07-20T04:23:11;2.60;;;2.40;;
9117;SDS011;4594;50.994;7.126;2023-07-20T04:25:39;2.77;;;2.30;;
9117;SDS011;4594;50.994;7.126;2023-07-20T04:28:06;2.53;;;2.33;;
9117;SDS011;4594;50.994;7.126;2023-07-20T04:30:35;2.90;;;2.23;;
9117;SDS011;4594;50.994;7.126;2023-07-20T04:33:05;3.27;;;2.60;;
9117;SDS011;4594;50.994;7.126;2023-07-20T04:38:19;4.83;;;2.53;;
9117;SDS011;4594;50.994;7.126;2023-07-20T04:40:49;4.93;;;2.67;;
9117;SDS011;4594;50.994;7.126;2023-07-20T04:43:15;2.33;;;2.23;;
9117;SDS011;4594;50.994;7.126;2023-07-20T04:45:42;5.07;;;2.50;;
9117;SDS011;4594;50.994;7.126;2023-07-20T04:48:09;5.93;;;2.53;;
9117;SDS011;4594;50.994;7.126;2023-07-20T04:50:37;4.33;;;2.70;;
9117;SDS011;4594;50.994;7.126;2023-07-20T04:53:05;4.33;;;2.70;;
9117;SDS011;4594;50.994;7.126;2023-07-20T04:55:31;2.70;;;2.50;;
9117;SDS011;4594;50.994;7.126;2023-07-20T04:57:58;5.57;;;2.90;;
9117;SDS011;4594;50.994;7.126;2023-07-20T05:00:26;2.90;;;2.60;;
9117;SDS011;4594;50.994;7.126;2023-07-20T05:02:51;3.20;;;2.90;;
9117;SDS011;4594;50.994;7.126;2023-07-20T05:05:17;5.30;;;2.70;;
9117;SDS011;4594;50.994;7.126;2023-07-20T05:07:43;3.70;;;2.40;;
9117;SDS011;4594;50.994;7.126;2023-07-20T05:10:09;8.53;;;2.70;;
9117;SDS011;4594;50.994;7.126;2023-07-20T05:12:36;2.73;;;2.43;;
9117;SDS011;4594;50.994;7.126;2023-07-20T05:15:02;6.37;;;3.00;;
9117;SDS011;4594;50.994;7.126;2023-07-20T05:17:29;4.53;;;2.37;;
9117;SDS011;4594;50.994;7.126;2023-07-20T05:19:54;3.00;;;2.73;;
9117;SDS011;4594;50.994;7.126;2023-07-20T05:22:20;4.13;;;2.83;;
9117;SDS011;4594;50.994;7.126;2023-07-20T05:24:46;2.90;;;2.60;;
9117;SDS011;4594;50.994;7.126;2023-07-20T05:27:11;5.10;;;2.90;;
9117;SDS011;4594;50.994;7.126;2023-07-20T05:29:37;5.93;;;2.90;;
9117;SDS011;4594;50.994;7.126;2023-07-20T05:32:08;8.37;;;2.60;;
9117;SDS011;4594;50.994;7.126;2023-07-20T05:34:34;2.93;;;2.63;;
9117;SDS011;4594;50.994;7.126;2023-07-20T05:37:00;4.23;;;2.23;;
9117;SDS011;4594;50.994;7.126;2023-07-20T05:39:26;5.37;;;2.60;;
9117;SDS011;4594;50.994;7.126;2023-07-20T05:41:51;4.57;;;2.93;;
9117;SDS011;4594;50.994;7.126;2023-07-20T05:44:17;4.63;;;2.90;;
9117;SDS011;4594;50.994;7.126;2023-07-20T05:46:43;10.17;;;2.87;;
9117;SDS011;4594;50.994;7.126;2023-07-20T05:49:09;3.33;;;2.87;;
9117;SDS011;4594;50.994;7.126;2023-07-20T05:51:35;4.70;;;3.07;;
9117;SDS011;4594;50.994;7.126;2023-07-20T05:54:01;6.90;;;3.43;;
9117;SDS011;4594;50.994;7.126;2023-07-20T05:56:27;3.40;;;3.10;;
9117;SDS011;4594;50.994;7.126;2023-07-20T05:58:52;3.77;;;3.43;;
9117;SDS011;4594;50.994;7.126;2023-07-20T06:01:18;6.20;;;3.27;;
9117;SDS011;4594;50.994;7.126;2023-07-20T06:03:44;10.23;;;3.47;;
9117;SDS011;4594;50.994;7.126;2023-07-20T06:06:10;8.27;;;3.37;;
9117;SDS011;4594;50.994;7.126;2023-07-20T06:08:37;4.30;;;3.30;;
9117;SDS011;4594;50.994;7.126;2023-07-20T06:11:03;4.87;;;3.50;;
9117;SDS011;4594;50.994;7.126;2023-07-20T06:13:29;6.43;;;3.63;;
9117;SDS011;4594;50.994;7.126;2023-07-20T06:15:55;7.67;;;3.43;;
9117;SDS011;4594;50.994;7.126;2023-07-20T06:18:23;3.93;;;3.60;;
9117;SDS011;4594;50.994;7.126;2023-07-20T06:20:50;4.77;;;3.27;;
9117;SDS011;4594;50.994;7.126;2023-07-20T06:23:18;3.80;;;3.50;;
9117;SDS011;4594;50.994;7.126;2023-07-20T06:25:44;4.40;;;3.87;;
9117;SDS011;4594;50.994;7.126;2023-07-20T06:28:10;6.07;;;4.20;;
9117;SDS011;4594;50.994;7.126;2023-07-20T06:30:36;5.27;;;3.90;;
9117;SDS011;4594;50.994;7.126;2023-07-20T06:33:02;7.87;;;3.83;;
9117;SDS011;4594;50.994;7.126;2023-07-20T06:35:28;8.10;;;4.00;;
9117;SDS011;4594;50.994;7.126;2023-07-20T06:37:53;7.40;;;3.37;;
9117;SDS011;4594;50.994;7.126;2023-07-20T06:40:19;5.80;;;3.67;;
9117;SDS011;4594;50.994;7.126;2023-07-20T06:42:46;4.57;;;4.17;;
9117;SDS011;4594;50.994;7.126;2023-07-20T06:45:12;5.93;;;3.53;;
9117;SDS011;4594;50.994;7.126;2023-07-20T06:47:38;5.57;;;3.57;;
9117;SDS011;4594;50.994;7.126;2023-07-20T06:50:07;4.43;;;4.07;;
9117;SDS011;4594;50.994;7.126;2023-07-20T06:52:34;5.00;;;3.47;;
9117;SDS011;4594;50.994;7.126;2023-07-20T06:55:02;4.30;;;3.50;;
9117;SDS011;4594;50.994;7.126;2023-07-20T06:57:28;4.97;;;3.87;;
9117;SDS011;4594;50.994;7.126;2023-07-20T06:59:54;6.13;;;3.40;;
9117;SDS011;4594;50.994;7.126;2023-07-20T07:02:20;5.27;;;3.57;;
9117;SDS011;4594;50.994;7.126;2023-07-20T07:04:45;4.20;;;3.80;;
9117;SDS011;4594;50.994;7.126;2023-07-20T07:07:13;3.73;;;2.90;;
9117;SDS011;4594;50.994;7.126;2023-07-20T07:09:40;5.53;;;3.63;;
9117;SDS011;4594;50.994;7.126;2023-07-20T07:12:06;3.60;;;3.27;;
9117;SDS011;4594;50.994;7.126;2023-07-20T07:14:33;3.57;;;3.27;;
9117;SDS011;4594;50.994;7.126;2023-07-20T07:17:00;4.73;;;3.73;;
9117;SDS011;4594;50.994;7.126;2023-07-20T07:19:26;6.73;;;4.10;;
9117;SDS011;4594;50.994;7.126;2023-07-20T07:21:51;6.07;;;3.80;;
9117;SDS011;4594;50.994;7.126;2023-07-20T07:24:17;5.53;;;3.50;;
9117;SDS011;4594;50.994;7.126;2023-07-20T07:26:43;5.90;;;3.20;;
9117;SDS011;4594;50.994;7.126;2023-07-20T07:29:09;4.90;;;3.60;;
9117;SDS011;4594;50.994;7.126;2023-07-20T07:31:35;5.40;;;3.30;;
9117;SDS011;4594;50.994;7.126;2023-07-20T07:34:01;3.90;;;3.50;;
9117;SDS011;4594;50.994;7.126;2023-07-20T07:36:28;4.67;;;3.60;;
9117;SDS011;4594;50.994;7.126;2023-07-20T07:38:53;3.70;;;3.20;;
9117;SDS011;4594;50.994;7.126;2023-07-20T07:41:19;7.33;;;3.13;;
9117;SDS011;4594;50.994;7.126;2023-07-20T07:43:45;3.40;;;3.10;;
9117;SDS011;4594;50.994;7.126;2023-07-20T07:46:11;3.77;;;3.23;;
9117;SDS011;4594;50.994;7.126;2023-07-20T07:48:37;3.40;;;3.07;;
9117;SDS011;4594;50.994;7.126;2023-07-20T07:51:03;7.73;;;3.07;;
9117;SDS011;4594;50.994;7.126;2023-07-20T07:53:28;5.80;;;3.03;;
9117;SDS011;4594;50.994;7.126;2023-07-20T07:55:54;3.17;;;2.87;;
9117;SDS011;4594;50.994;7.126;2023-07-20T07:58:20;3.53;;;2.70;;
9117;SDS011;4594;50.994;7.126;2023-07-20T08:00:46;3.77;;;2.83;;
9117;SDS011;4594;50.994;7.126;2023-07-20T08:03:13;2.80;;;2.60;;
9117;SDS011;4594;50.994;7.126;2023-07-20T08:05:38;3.70;;;2.67;;
9117;SDS011;4594;50.994;7.126;2023-07-20T08:08:04;3.93;;;2.57;;
9117;SDS011;4594;50.994;7.126;2023-07-20T08:10:30;3.03;;;2.30;;
9117;SDS011;4594;50.994;7.126;2023-07-20T08:12:56;4.17;;;2.40;;
9117;SDS011;4594;50.994;7.126;2023-07-20T08:15:22;6.43;;;2.30;;
9117;SDS011;4594;50.994;7.126;2023-07-20T08:17:48;10.37;;;2.17;;
9117;SDS011;4594;50.994;7.126;2023-07-20T08:20:16;1.90;;;1.70;;
9117;SDS011;4594;50.994;7.126;2023-07-20T08:22:43;1.97;;;1.50;;
9117;SDS011;4594;50.994;7.126;2023-07-20T08:25:09;1.37;;;1.30;;
9117;SDS011;4594;50.994;7.126;2023-07-20T08:27:35;1.60;;;1.50;;
9117;SDS011;4594;50.994;7.126;2023-07-20T08:30:01;2.83;;;1.90;;
9117;SDS011;4594;50.994;7.126;2023-07-20T08:32:29;2.67;;;1.80;;
9117;SDS011;4594;50.994;7.126;2023-07-20T08:34:55;1.63;;;1.30;;
9117;SDS011;4594;50.994;7.126;2023-07-20T08:37:20;1.70;;;1.60;;
9117;SDS011;4594;50.994;7.126;2023-07-20T08:39:47;1.87;;;1.73;;
9117;SDS011;4594;50.994;7.126;2023-07-20T08:42:12;2.27;;;1.43;;
9117;SDS011;4594;50.994;7.126;2023-07-20T08:44:39;2.30;;;1.50;;
9117;SDS011;4594;50.994;7.126;2023-07-20T08:47:09;13.70;;;1.47;;
9117;SDS011;4594;50.994;7.126;2023-07-20T08:49:38;6.87;;;1.53;;
9117;SDS011;4594;50.994;7.126;2023-07-20T08:52:06;1.30;;;1.20;;
9117;SDS011;4594;50.994;7.126;2023-07-20T08:54:32;0.87;;;0.87;;
9117;SDS011;4594;50.994;7.126;2023-07-20T08:57:03;2.47;;;1.03;;
9117;SDS011;4594;50.994;7.126;2023-07-20T08:59:30;1.77;;;1.00;;
9117;SDS011;4594;50.994;7.126;2023-07-20T09:01:58;0.90;;;0.90;;
9117;SDS011;4594;50.994;7.126;2023-07-20T09:04:25;2.73;;;0.93;;
9117;SDS011;4594;50.994;7.126;2023-07-20T09:06:51;0.90;;;0.90;;
9117;SDS011;4594;50.994;7.126;2023-07-20T09:09:17;1.50;;;1.40;;
9117;SDS011;4594;50.994;7.126;2023-07-20T09:11:43;1.90;;;1.00;;
9117;SDS011;4594;50.994;7.126;2023-07-20T09:14:13;6.60;;;0.67;;
9117;SDS011;4594;50.994;7.126;2023-07-20T09:16:54;0.60;;;0.60;;
9117;SDS011;4594;50.994;7.126;2023-07-20T09:19:21;0.80;;;0.80;;
9117;SDS011;4594;50.994;7.126;2023-07-20T09:21:51;0.70;;;0.70;;
9117;SDS011;4594;50.994;7.126;2023-07-20T09:24:17;0.60;;;0.60;;
9117;SDS011;4594;50.994;7.126;2023-07-20T09:26:45;2.37;;;1.00;;
9117;SDS011;4594;50.994;7.126;2023-07-20T09:29:13;1.83;;;0.83;;
9117;SDS011;4594;50.994;7.126;2023-07-20T09:31:43;7.30;;;1.53;;
9117;SDS011;4594;50.994;7.126;2023-07-20T09:34:24;1.93;;;1.00;;
9117;SDS011;4594;50.994;7.126;2023-07-20T09:36:50;0.97;;;0.83;;
9117;SDS011;4594;50.994;7.126;2023-07-20T09:39:17;1.00;;;0.90;;
9117;SDS011;4594;50.994;7.126;2023-07-20T09:41:43;0.63;;;0.63;;
9117;SDS011;4594;50.994;7.126;2023-07-20T09:44:10;0.50;;;0.50;;
9117;SDS011;4594;50.994;7.126;2023-07-20T09:46:48;1.43;;;0.80;;
9117;SDS011;4594;50.994;7.126;2023-07-20T09:49:16;0.80;;;0.80;;
9117;SDS011;4594;50.994;7.126;2023-07-20T09:51:44;0.60;;;0.60;;
9117;SDS011;4594;50.994;7.126;2023-07-20T09:54:11;0.63;;;0.60;;
9117;SDS011;4594;50.994;7.126;2023-07-20T09:56:38;0.93;;;0.50;;
9117;SDS011;4594;50.994;7.126;2023-07-20T09:59:05;0.73;;;0.73;;
9117;SDS011;4594;50.994;7.126;2023-07-20T10:01:32;0.93;;;0.70;;
9117;SDS011;4594;50.994;7.126;2023-07-20T10:03:59;1.20;;;0.87;;
9117;SDS011;4594;50.994;7.126;2023-07-20T10:06:29;4.37;;;0.87;;
9117;SDS011;4594;50.994;7.126;2023-07-20T10:09:00;0.60;;;0.60;;
9117;SDS011;4594;50.994;7.126;2023-07-20T10:11:32;0.70;;;0.70;;
9117;SDS011;4594;50.994;7.126;2023-07-20T10:14:04;0.57;;;0.57;;
9117;SDS011;4594;50.994;7.126;2023-07-20T10:16:33;0.70;;;0.70;;
9117;SDS011;4594;50.994;7.126;2023-07-20T10:19:23;0.90;;;0.87;;
9117;SDS011;4594;50.994;7.126;2023-07-20T10:22:06;1.27;;;0.80;;
9117;SDS011;4594;50.994;7.126;2023-07-20T10:24:38;1.67;;;0.77;;
9117;SDS011;4594;50.994;7.126;2023-07-20T10:27:06;0.50;;;0.50;;
9117;SDS011;4594;50.994;7.126;2023-07-20T10:29:32;0.70;;;0.70;;
9117;SDS011;4594;50.994;7.126;2023-07-20T10:31:59;0.53;;;0.53;;
9117;SDS011;4594;50.994;7.126;2023-07-20T10:34:26;0.63;;;0.63;;
9117;SDS011;4594;50.994;7.126;2023-07-20T10:36:52;1.10;;;0.87;;
9117;SDS011;4594;50.994;7.126;2023-07-20T10:39:23;1.13;;;0.87;;
9117;SDS011;4594;50.994;7.126;2023-07-20T10:42:08;2.17;;;0.90;;
9117;SDS011;4594;50.994;7.126;2023-07-20T10:44:39;0.60;;;0.60;;
9117;SDS011;4594;50.994;7.126;2023-07-20T10:47:09;0.57;;;0.57;;
9117;SDS011;4594;50.994;7.126;2023-07-20T10:49:57;0.60;;;0.60;;
9117;SDS011;4594;50.994;7.126;2023-07-20T10:52:25;0.60;;;0.53;;
9117;SDS011;4594;50.994;7.126;2023-07-20T10:54:51;0.80;;;0.80;;
9117;SDS011;4594;50.994;7.126;2023-07-20T10:57:30;0.83;;;0.83;;
9117;SDS011;4594;50.994;7.126;2023-07-20T11:00:07;0.80;;;0.80;;
9117;SDS011;4594;50.994;7.126;2023-07-20T11:02:42;1.63;;;1.00;;
9117;SDS011;4594;50.994;7.126;2023-07-20T11:08:04;16.80;;;0.90;;
9117;SDS011;4594;50.994;7.126;2023-07-20T11:10:35;0.90;;;0.77;;
9117;SDS011;4594;50.994;7.126;2023-07-20T11:13:20;0.60;;;0.60;;
9117;SDS011;4594;50.994;7.126;2023-07-20T11:18:25;0.47;;;0.40;;
9117;SDS011;4594;50.994;7.126;2023-07-20T11:20:51;0.57;;;0.57;;
9117;SDS011;4594;50.994;7.126;2023-07-20T11:23:22;0.40;;;0.40;;
9117;SDS011;4594;50.994;7.126;2023-07-20T11:25:48;0.87;;;0.87;;
9117;SDS011;4594;50.994;7.126;2023-07-20T11:28:15;0.37;;;0.37;;
9117;SDS011;4594;50.994;7.126;2023-07-20T11:30:41;0.47;;;0.47;;
9117;SDS011;4594;50.994;7.126;2023-07-20T11:33:09;0.40;;;0.40;;
9117;SDS011;4594;50.994;7.126;2023-07-20T11:35:36;0.40;;;0.40;;
9117;SDS011;4594;50.994;7.126;2023-07-20T11:38:09;0.60;;;0.60;;
9117;SDS011;4594;50.994;7.126;2023-07-20T11:40:34;0.53;;;0.53;;
9117;SDS011;4594;50.994;7.126;2023-07-20T11:43:00;1.07;;;0.80;;
9117;SDS011;4594;50.994;7.126;2023-07-20T11:45:27;0.80;;;0.80;;
9117;SDS011;4594;50.994;7.126;2023-07-20T11:47:58;1.70;;;0.43;;
9117;SDS011;4594;50.994;7.126;2023-07-20T11:50:25;0.50;;;0.50;;
9117;SDS011;4594;50.994;7.126;2023-07-20T11:52:50;0.70;;;0.70;;
9117;SDS011;4594;50.994;7.126;2023-07-20T11:55:16;0.70;;;0.70;;
9117;SDS011;4594;50.994;7.126;2023-07-20T11:58:00;0.50;;;0.50;;
9117;SDS011;4594;50.994;7.126;2023-07-20T12:00:36;2.33;;;0.70;;
9117;SDS011;4594;50.994;7.126;2023-07-20T12:03:05;0.93;;;0.60;;
9117;SDS011;4594;50.994;7.126;2023-07-20T12:05:32;0.90;;;0.90;;
9117;SDS011;4594;50.994;7.126;2023-07-20T12:07:58;0.77;;;0.70;;
9117;SDS011;4594;50.994;7.126;2023-07-20T12:10:25;0.70;;;0.70;;
9117;SDS011;4594;50.994;7.126;2023-07-20T12:12:53;0.70;;;0.70;;
9117;SDS011;4594;50.994;7.126;2023-07-20T12:15:20;0.60;;;0.60;;
9117;SDS011;4594;50.994;7.126;2023-07-20T12:17:52;0.80;;;0.80;;
9117;SDS011;4594;50.994;7.126;2023-07-20T12:22:58;1.17;;;0.67;;
9117;SDS011;4594;50.994;7.126;2023-07-20T12:28:17;0.70;;;0.70;;
9117;SDS011;4594;50.994;7.126;2023-07-20T12:30:45;0.70;;;0.70;;
9117;SDS011;4594;50.994;7.126;2023-07-20T12:33:12;0.67;;;0.67;;
9117;SDS011;4594;50.994;7.126;2023-07-20T12:35:40;0.67;;;0.60;;
9117;SDS011;4594;50.994;7.126;2023-07-20T12:38:08;0.57;;;0.57;;
9117;SDS011;4594;50.994;7.126;2023-07-20T12:40:34;0.60;;;0.60;;
9117;SDS011;4594;50.994;7.126;2023-07-20T12:43:00;0.67;;;0.67;;
9117;SDS011;4594;50.994;7.126;2023-07-20T12:45:25;0.80;;;0.80;;
9117;SDS011;4594;50.994;7.126;2023-07-20T12:47:52;0.60;;;0.60;;
9117;SDS011;4594;50.994;7.126;2023-07-20T12:50:17;0.60;;;0.60;;
9117;SDS011;4594;50.994;7.126;2023-07-20T12:52:43;0.70;;;0.70;;
9117;SDS011;4594;50.994;7.126;2023-07-20T12:55:09;1.00;;;0.90;;
9117;SDS011;4594;50.994;7.126;2023-07-20T12:57:35;1.60;;;0.70;;
9117;SDS011;4594;50.994;7.126;2023-07-20T13:00:05;4.13;;;1.33;;
9117;SDS011;4594;50.994;7.126;2023-07-20T13:02:34;0.70;;;0.70;;
9117;SDS011;4594;50.994;7.126;2023-07-20T13:05:01;0.80;;;0.70;;
9117;SDS011;4594;50.994;7.126;2023-07-20T13:07:31;0.67;;;0.67;;
9117;SDS011;4594;50.994;7.126;2023-07-20T13:10:00;2.10;;;0.90;;
9117;SDS011;4594;50.994;7.126;2023-07-20T13:12:27;0.80;;;0.80;;
9117;SDS011;4594;50.994;7.126;2023-07-20T13:14:55;1.10;;;0.77;;
9117;SDS011;4594;50.994;7.126;2023-07-20T13:17:22;3.83;;;0.80;;
9117;SDS011;4594;50.994;7.126;2023-07-20T13:19:48;0.80;;;0.80;;
9117;SDS011;4594;50.994;7.126;2023-07-20T13:22:14;3.30;;;1.20;;
9117;SDS011;4594;50.994;7.126;2023-07-20T13:24:40;1.07;;;0.90;;
9117;SDS011;4594;50.994;7.126;2023-07-20T13:27:06;0.87;;;0.87;;
9117;SDS011;4594;50.994;7.126;2023-07-20T13:29:32;1.60;;;0.73;;
9117;SDS011;4594;50.994;7.126;2023-07-20T13:31:58;1.73;;;1.20;;
9117;SDS011;4594;50.994;7.126;2023-07-20T13:34:25;1.03;;;1.00;;
9117;SDS011;4594;50.994;7.126;2023-07-20T13:36:51;3.10;;;1.30;;
9117;SDS011;4594;50.994;7.126;2023-07-20T13:39:17;1.23;;;1.13;;
9117;SDS011;4594;50.994;7.126;2023-07-20T13:41:43;1.00;;;1.00;;
9117;SDS011;4594;50.994;7.126;2023-07-20T13:44:10;1.00;;;1.00;;
9117;SDS011;4594;50.994;7.126;2023-07-20T13:46:35;0.80;;;0.80;;
9117;SDS011;4594;50.994;7.126;2023-07-20T13:49:01;1.60;;;1.37;;
9117;SDS011;4594;50.994;7.126;2023-07-20T13:51:27;8.13;;;1.10;;
9117;SDS011;4594;50.994;7.126;2023-07-20T13:53:52;0.80;;;0.70;;
9117;SDS011;4594;50.994;7.126;2023-07-20T13:56:18;0.80;;;0.80;;
9117;SDS011;4594;50.994;7.126;2023-07-20T13:58:44;0.70;;;0.70;;
9117;SDS011;4594;50.994;7.126;2023-07-20T14:01:10;2.57;;;1.20;;
9117;SDS011;4594;50.994;7.126;2023-07-20T14:03:35;1.03;;;1.00;;
9117;SDS011;4594;50.994;7.126;2023-07-20T14:06:02;0.90;;;0.90;;
9117;SDS011;4594;50.994;7.126;2023-07-20T14:08:28;0.73;;;0.73;;
9117;SDS011;4594;50.994;7.126;2023-07-20T14:10:55;0.97;;;0.87;;
9117;SDS011;4594;50.994;7.126;2023-07-20T14:13:20;1.20;;;0.97;;
9117;SDS011;4594;50.994;7.126;2023-07-20T14:15:46;2.13;;;1.00;;
9117;SDS011;4594;50.994;7.126;2023-07-20T14:18:12;2.83;;;1.00;;
9117;SDS011;4594;50.994;7.126;2023-07-20T14:20:38;5.97;;;0.80;;
9117;SDS011;4594;50.994;7.126;2023-07-20T14:23:03;1.77;;;1.07;;
9117;SDS011;4594;50.994;7.126;2023-07-20T14:25:29;0.97;;;0.90;;
9117;SDS011;4594;50.994;7.126;2023-07-20T14:27:54;0.90;;;0.80;;
9117;SDS011;4594;50.994;7.126;2023-07-20T14:30:20;1.17;;;0.80;;
9117;SDS011;4594;50.994;7.126;2023-07-20T14:32:46;1.13;;;0.70;;
9117;SDS011;4594;50.994;7.126;2023-07-20T14:35:11;1.00;;;1.00;;
9117;SDS011;4594;50.994;7.126;2023-07-20T14:37:37;2.70;;;0.90;;
9117;SDS011;4594;50.994;7.126;2023-07-20T14:40:03;0.73;;;0.73;;
9117;SDS011;4594;50.994;7.126;2023-07-20T14:42:30;0.73;;;0.73;;
9117;SDS011;4594;50.994;7.126;2023-07-20T14:44:57;3.33;;;1.20;;
9117;SDS011;4594;50.994;7.126;2023-07-20T14:47:23;1.03;;;1.03;;
9117;SDS011;4594;50.994;7.126;2023-07-20T14:49:49;1.27;;;0.97;;
9117;SDS011;4594;50.994;7.126;2023-07-20T14:52:15;1.00;;;0.90;;
9117;SDS011;4594;50.994;7.126;2023-07-20T14:54:40;1.10;;;1.07;;
9117;SDS011;4594;50.994;7.126;2023-07-20T14:57:06;2.83;;;1.00;;
9117;SDS011;4594;50.994;7.126;2023-07-20T14:59:39;0.70;;;0.70;;
9117;SDS011;4594;50.994;7.126;2023-07-20T15:02:06;1.20;;;1.10;;
9117;SDS011;4594;50.994;7.126;2023-07-20T15:04:33;1.80;;;1.30;;
9117;SDS011;4594;50.994;7.126;2023-07-20T15:06:59;0.80;;;0.80;;
9117;SDS011;4594;50.994;7.126;2023-07-20T15:09:24;0.97;;;0.93;;
9117;SDS011;4594;50.994;7.126;2023-07-20T15:11:50;1.60;;;1.17;;
9117;SDS011;4594;50.994;7.126;2023-07-20T15:14:16;0.77;;;0.77;;
9117;SDS011;4594;50.994;7.126;2023-07-20T15:16:42;1.33;;;0.77;;
9117;SDS011;4594;50.994;7.126;2023-07-20T15:19:08;6.20;;;1.40;;
9117;SDS011;4594;50.994;7.126;2023-07-20T15:21:34;2.97;;;0.87;;
9117;SDS011;4594;50.994;7.126;2023-07-20T15:24:00;5.10;;;0.83;;
9117;SDS011;4594;50.994;7.126;2023-07-20T15:26:26;1.00;;;0.80;;
9117;SDS011;4594;50.994;7.126;2023-07-20T15:28:51;0.80;;;0.80;;
9117;SDS011;4594;50.994;7.126;2023-07-20T15:31:17;0.70;;;0.70;;
9117;SDS011;4594;50.994;7.126;2023-07-20T15:33:43;1.50;;;0.90;;
9117;SDS011;4594;50.994;7.126;2023-07-20T15:36:08;0.63;;;0.63;;